SAN weather

San Diego International Airport
San Diego, California, United States

Public forecast

Using degrees Fahrenheit for public forecast. Weather courtesy of forecast.io.

METAR (pilot weather report)

Retrieved 2017/05/24 23:51 UTC (1 hour ago):

KSAN 242351Z 28010KT 10SM FEW015 FEW100 SCT200 SCT250 19/13 A2985 RMK AO2 SLP108 T01940128 10217 20194 56011

TAF (pilot weather forecast)

Forecast is more than 12 hours old.

Retrieved 2017/05/24 00:24 UTC (1 day ago):

TAF KSAN 242322Z 2500/2606 27008KT P6SM FEW015 FM250300 VRB05KT P6SM SCT015 FM250600 VRB04KT P6SM OVC015 FM251900 27010KT P6SM BKN025 FM260200 VRB05KT P6SM OVC022